Time;durP1;ratioP1;P1;durP2;ratioP2;P2;SDS_P1;SDS_P2;PMS_P1;PMS_P2;Temp;Humidity;BMP_temperature;BMP_pressure;BME280_temperature;BME280_humidity;BME280_pressure;Samples;Min_cycle;Max_cycle;Signal;HPM_P1;HPM_P2
2024/02/19 00:00:00;;;;;;;10.43;5.67;;;;;;;;;;692807;28;1092;-63
2024/02/19 00:00:24;;;;;;;12.32;5.95;;;;;;;;;;691276;28;1115;-63
2024/02/19 00:00:47;;;;;;;10.93;5.60;;;;;;;;;;691581;28;988;-64
2024/02/19 00:01:07;;;;;;;13.80;6.18;;;;;;;;;;690458;28;4232;-64
2024/02/19 00:01:30;;;;;;;13.07;6.00;;;;;;;;;;691429;28;2629;-64
2024/02/19 00:01:51;;;;;;;12.45;6.22;;;;;;;;;;700304;28;921;-64
2024/02/19 00:02:11;;;;;;;11.90;6.25;;;;;;;;;;701905;28;999;-63
2024/02/19 00:02:31;;;;;;;12.90;6.50;;;;;;;;;;699434;28;2356;-64
2024/02/19 00:02:52;;;;;;;15.00;7.37;;;;;;;;;;699837;28;3404;-64
2024/02/19 00:03:14;;;;;;;13.45;7.00;;;;;;;;;;701884;28;4791;-63
2024/02/19 00:03:35;;;;;;;13.60;6.50;;;;;;;;;;700808;28;2315;-63
2024/02/19 00:03:55;;;;;;;12.98;6.00;;;;;;;;;;703461;27;1208;-64
2024/02/19 00:04:16;;;;;;;11.40;5.90;;;;;;;;;;704961;27;4218;-62
2024/02/19 00:04:36;;;;;;;13.15;5.97;;;;;;;;;;702729;27;1795;-63
2024/02/19 00:04:57;;;;;;;10.75;5.90;;;;;;;;;;704943;27;908;-63
2024/02/19 00:05:17;;;;;;;12.17;6.00;;;;;;;;;;703805;27;908;-62
2024/02/19 00:05:37;;;;;;;14.77;6.20;;;;;;;;;;699410;28;1919;-65
2024/02/19 00:05:58;;;;;;;12.85;6.13;;;;;;;;;;701253;28;759;-63
2024/02/19 00:06:18;;;;;;;12.70;6.33;;;;;;;;;;701039;28;1080;-63
2024/02/19 00:06:38;;;;;;;13.90;6.23;;;;;;;;;;700598;28;1730;-63
2024/02/19 00:06:58;;;;;;;13.88;6.20;;;;;;;;;;700198;28;1425;-64
2024/02/19 00:07:19;;;;;;;10.13;6.10;;;;;;;;;;698689;28;4265;-64
2024/02/19 00:07:39;;;;;;;11.27;6.60;;;;;;;;;;700342;28;1896;-63
2024/02/19 00:07:59;;;;;;;12.70;6.82;;;;;;;;;;701545;28;1142;-65
2024/02/19 00:08:21;;;;;;;14.23;6.43;;;;;;;;;;702394;28;848;-63
2024/02/19 00:08:41;;;;;;;14.55;6.18;;;;;;;;;;700952;28;1747;-63
2024/02/19 00:09:01;;;;;;;13.67;6.50;;;;;;;;;;703585;28;1237;-62
2024/02/19 00:09:21;;;;;;;14.60;6.70;;;;;;;;;;700110;28;2063;-64
2024/02/19 00:09:42;;;;;;;13.50;6.60;;;;;;;;;;701112;28;1298;-65
2024/02/19 00:10:02;;;;;;;13.73;5.90;;;;;;;;;;702170;28;4411;-63
2024/02/19 00:10:23;;;;;;;13.43;6.10;;;;;;;;;;701219;28;1819;-63
2024/02/19 00:10:43;;;;;;;11.10;5.95;;;;;;;;;;694359;28;1530;-63
2024/02/19 00:11:03;;;;;;;14.67;6.37;;;;;;;;;;693965;28;1217;-63
2024/02/19 00:11:23;;;;;;;13.43;5.90;;;;;;;;;;692262;28;2283;-64
2024/02/19 00:11:44;;;;;;;13.10;6.17;;;;;;;;;;693569;28;776;-63
2024/02/19 00:12:04;;;;;;;13.07;6.40;;;;;;;;;;696230;28;1066;-63
2024/02/19 00:12:24;;;;;;;13.10;6.50;;;;;;;;;;695239;28;2006;-63
2024/02/19 00:12:45;;;;;;;12.90;6.50;;;;;;;;;;699525;28;864;-63
2024/02/19 00:13:05;;;;;;;13.10;5.97;;;;;;;;;;699599;28;4416;-64
2024/02/19 00:13:25;;;;;;;13.32;6.15;;;;;;;;;;699931;28;1757;-64
2024/02/19 00:13:46;;;;;;;12.67;6.43;;;;;;;;;;702423;27;944;-64
2024/02/19 00:14:06;;;;;;;12.57;6.47;;;;;;;;;;704820;27;1248;-63
2024/02/19 00:14:26;;;;;;;10.20;5.93;;;;;;;;;;700945;28;1418;-63
2024/02/19 00:14:46;;;;;;;11.87;6.23;;;;;;;;;;698302;28;1278;-63
2024/02/19 00:15:07;;;;;;;13.50;6.43;;;;;;;;;;698337;28;789;-63
2024/02/19 00:15:27;;;;;;;14.13;6.25;;;;;;;;;;700109;28;978;-64
2024/02/19 00:15:48;;;;;;;11.80;6.00;;;;;;;;;;701624;28;1082;-62
2024/02/19 00:16:08;;;;;;;12.20;5.80;;;;;;;;;;700754;28;4292;-64
2024/02/19 00:16:29;;;;;;;11.90;6.03;;;;;;;;;;698915;28;1585;-64
2024/02/19 00:16:49;;;;;;;11.40;5.90;;;;;;;;;;700157;28;1165;-63
2024/02/19 00:17:09;;;;;;;12.60;6.30;;;;;;;;;;700519;28;944;-64
2024/02/19 00:17:30;;;;;;;11.90;5.90;;;;;;;;;;703081;27;2328;-63
2024/02/19 00:17:50;;;;;;;12.63;6.20;;;;;;;;;;703604;27;792;-64
2024/02/19 00:18:10;;;;;;;14.00;6.47;;;;;;;;;;702921;27;974;-62
2024/02/19 00:18:30;;;;;;;12.35;6.20;;;;;;;;;;702457;27;2316;-64
2024/02/19 00:18:51;;;;;;;14.17;6.53;;;;;;;;;;704798;27;954;-64
2024/02/19 00:19:11;;;;;;;14.40;6.27;;;;;;;;;;702628;28;4222;-64
2024/02/19 00:19:31;;;;;;;12.93;6.30;;;;;;;;;;699916;28;2165;-63
2024/02/19 00:19:52;;;;;;;11.87;6.30;;;;;;;;;;702629;28;959;-63
2024/02/19 00:20:12;;;;;;;13.47;6.07;;;;;;;;;;702918;28;824;-66
2024/02/19 00:20:32;;;;;;;12.77;6.20;;;;;;;;;;700578;28;1005;-64
2024/02/19 00:20:53;;;;;;;13.03;6.40;;;;;;;;;;701772;28;1110;-64
2024/02/19 00:21:15;;;;;;;13.60;6.43;;;;;;;;;;701492;28;829;-64
2024/02/19 00:21:36;;;;;;;13.73;6.40;;;;;;;;;;699129;28;1723;-63
2024/02/19 00:21:56;;;;;;;13.10;6.25;;;;;;;;;;699395;28;1443;-63
2024/02/19 00:22:17;;;;;;;12.43;5.93;;;;;;;;;;700116;28;4381;-64
2024/02/19 00:22:37;;;;;;;14.07;6.35;;;;;;;;;;699131;28;1398;-63
2024/02/19 00:22:57;;;;;;;13.20;6.33;;;;;;;;;;702064;28;1258;-62
2024/02/19 00:23:17;;;;;;;13.00;6.40;;;;;;;;;;698476;28;1289;-65
2024/02/19 00:23:38;;;;;;;13.45;6.28;;;;;;;;;;698064;28;1825;-63
2024/02/19 00:23:58;;;;;;;12.90;6.50;;;;;;;;;;698839;28;1126;-63
2024/02/19 00:24:18;;;;;;;13.70;6.40;;;;;;;;;;698257;28;1335;-61
2024/02/19 00:24:39;;;;;;;14.37;6.00;;;;;;;;;;699556;28;2290;-62
2024/02/19 00:24:59;;;;;;;12.00;5.90;;;;;;;;;;699709;28;1195;-63
2024/02/19 00:25:19;;;;;;;13.47;6.23;;;;;;;;;;698863;28;4446;-64
2024/02/19 00:25:40;;;;;;;12.67;6.40;;;;;;;;;;699688;28;1583;-63
2024/02/19 00:26:00;;;;;;;12.70;6.05;;;;;;;;;;700498;28;1241;-64
2024/02/19 00:26:21;;;;;;;12.37;6.20;;;;;;;;;;699816;28;933;-64
2024/02/19 00:26:41;;;;;;;13.63;6.90;;;;;;;;;;698576;28;1946;-63
2024/02/19 00:27:02;;;;;;;13.50;6.40;;;;;;;;;;699298;28;1391;-63
2024/02/19 00:27:22;;;;;;;11.63;6.20;;;;;;;;;;697897;28;796;-63
2024/02/19 00:27:42;;;;;;;14.13;6.80;;;;;;;;;;695976;28;2238;-63
2024/02/19 00:28:02;;;;;;;12.60;6.37;;;;;;;;;;698456;28;4250;-63
2024/02/19 00:28:23;;;;;;;11.87;5.90;;;;;;;;;;697747;28;1741;-64
2024/02/19 00:28:44;;;;;;;15.63;6.80;;;;;;;;;;696076;28;947;-63
2024/02/19 00:29:04;;;;;;;15.02;6.97;;;;;;;;;;699907;28;942;-64
2024/02/19 00:29:25;;;;;;;11.98;6.22;;;;;;;;;;697413;28;2350;-64
2024/02/19 00:29:45;;;;;;;11.97;6.37;;;;;;;;;;699600;28;924;-63
2024/02/19 00:30:05;;;;;;;13.47;6.63;;;;;;;;;;699290;28;1242;-63
2024/02/19 00:30:26;;;;;;;13.68;6.63;;;;;;;;;;697118;28;1532;-63
2024/02/19 00:30:46;;;;;;;13.87;6.43;;;;;;;;;;701052;28;3303;-64
2024/02/19 00:31:10;;;;;;;13.53;6.73;;;;;;;;;;700643;28;4250;-63
2024/02/19 00:31:30;;;;;;;13.70;6.80;;;;;;;;;;699284;28;1540;-63
2024/02/19 00:31:50;;;;;;;14.32;7.18;;;;;;;;;;701549;28;944;-63
2024/02/19 00:32:11;;;;;;;13.87;6.93;;;;;;;;;;701759;28;789;-63
2024/02/19 00:32:31;;;;;;;14.47;6.73;;;;;;;;;;701724;28;1902;-64
2024/02/19 00:32:53;;;;;;;14.60;6.57;;;;;;;;;;702222;28;907;-63
2024/02/19 00:33:13;;;;;;;14.68;6.60;;;;;;;;;;704485;27;977;-63
2024/02/19 00:33:33;;;;;;;14.40;7.40;;;;;;;;;;702707;28;1746;-64
2024/02/19 00:33:53;;;;;;;16.50;7.43;;;;;;;;;;704029;27;835;-62
2024/02/19 00:34:14;;;;;;;12.87;6.40;;;;;;;;;;704456;27;4422;-63
2024/02/19 00:34:34;;;;;;;14.60;6.70;;;;;;;;;;703290;27;1926;-64
2024/02/19 00:34:55;;;;;;;11.90;6.37;;;;;;;;;;703719;27;1349;-64
2024/02/19 00:35:15;;;;;;;13.00;6.90;;;;;;;;;;703808;28;1051;-63
2024/02/19 00:35:35;;;;;;;12.80;6.07;;;;;;;;;;701593;28;1118;-64
2024/02/19 00:35:56;;;;;;;11.53;5.90;;;;;;;;;;698171;28;1400;-63
2024/02/19 00:36:16;;;;;;;12.00;6.60;;;;;;;;;;700186;28;869;-62
2024/02/19 00:36:37;;;;;;;13.17;6.63;;;;;;;;;;697534;28;1090;-63
2024/02/19 00:36:57;;;;;;;13.07;6.50;;;;;;;;;;699238;28;924;-64
2024/02/19 00:37:17;;;;;;;12.38;6.20;;;;;;;;;;698892;28;4387;-62
2024/02/19 00:37:38;;;;;;;10.97;5.70;;;;;;;;;;698630;28;1692;-63
2024/02/19 00:37:58;;;;;;;11.73;6.20;;;;;;;;;;702438;28;900;-64
2024/02/19 00:38:18;;;;;;;12.32;6.90;;;;;;;;;;701573;28;1018;-63
2024/02/19 00:38:39;;;;;;;10.03;6.50;;;;;;;;;;704217;27;1692;-64
2024/02/19 00:38:59;;;;;;;10.27;5.77;;;;;;;;;;703930;27;1042;-64
2024/02/19 00:39:19;;;;;;;12.45;5.80;;;;;;;;;;701937;28;1348;-64
2024/02/19 00:39:39;;;;;;;11.87;5.80;;;;;;;;;;697949;28;3502;-63
2024/02/19 00:40:00;;;;;;;12.13;5.70;;;;;;;;;;697087;28;5026;-65
2024/02/19 00:40:20;;;;;;;11.07;5.78;;;;;;;;;;698307;28;814;-64
2024/02/19 00:40:40;;;;;;;10.23;5.67;;;;;;;;;;698400;28;1705;-64
2024/02/19 00:41:03;;;;;;;10.37;5.27;;;;;;;;;;698244;28;897;-65
2024/02/19 00:41:23;;;;;;;13.40;6.35;;;;;;;;;;697395;28;2401;-67
2024/02/19 00:41:43;;;;;;;12.00;6.20;;;;;;;;;;694915;28;1224;-63
2024/02/19 00:42:04;;;;;;;11.02;5.60;;;;;;;;;;696979;28;995;-63
2024/02/19 00:42:25;;;;;;;9.97;5.60;;;;;;;;;;694794;28;1772;-64
2024/02/19 00:42:45;;;;;;;11.82;5.40;;;;;;;;;;696486;28;939;-63
2024/02/19 00:43:05;;;;;;;11.23;5.30;;;;;;;;;;695438;28;4235;-63
2024/02/19 00:43:26;;;;;;;10.30;5.27;;;;;;;;;;697176;28;1878;-65
2024/02/19 00:43:46;;;;;;;9.20;5.40;;;;;;;;;;702166;28;923;-64
2024/02/19 00:44:07;;;;;;;10.17;4.90;;;;;;;;;;702201;28;947;-63
2024/02/19 00:44:27;;;;;;;10.43;5.40;;;;;;;;;;699712;28;1967;-65
2024/02/19 00:44:47;;;;;;;11.32;5.30;;;;;;;;;;702234;28;908;-65
2024/02/19 00:45:08;;;;;;;12.23;5.30;;;;;;;;;;699290;28;1330;-63
2024/02/19 00:45:28;;;;;;;10.73;5.10;;;;;;;;;;696919;28;1469;-63
2024/02/19 00:45:49;;;;;;;11.70;5.40;;;;;;;;;;699267;28;1130;-63
2024/02/19 00:46:09;;;;;;;10.67;5.70;;;;;;;;;;701049;28;4239;-64
2024/02/19 00:46:29;;;;;;;9.80;5.43;;;;;;;;;;700612;28;1899;-64
2024/02/19 00:46:49;;;;;;;9.00;5.10;;;;;;;;;;701491;28;1100;-63
2024/02/19 00:47:11;;;;;;;9.77;5.23;;;;;;;;;;703076;28;959;-64
2024/02/19 00:47:31;;;;;;;10.20;5.32;;;;;;;;;;701416;27;1824;-64
2024/02/19 00:47:51;;;;;;;10.70;5.20;;;;;;;;;;704750;27;773;-64
2024/02/19 00:48:12;;;;;;;10.90;4.93;;;;;;;;;;705194;27;853;-64
2024/02/19 00:48:32;;;;;;;8.37;4.97;;;;;;;;;;701777;28;1739;-64
2024/02/19 00:48:53;;;;;;;9.10;5.20;;;;;;;;;;702739;28;1748;-64
2024/02/19 00:49:13;;;;;;;10.03;5.47;;;;;;;;;;700851;28;4662;-65
2024/02/19 00:49:33;;;;;;;10.67;5.20;;;;;;;;;;696612;28;1903;-63
2024/02/19 00:49:54;;;;;;;8.77;4.90;;;;;;;;;;700175;28;986;-64
2024/02/19 00:50:14;;;;;;;8.55;5.10;;;;;;;;;;696697;28;1481;-62
2024/02/19 00:50:35;;;;;;;11.80;5.70;;;;;;;;;;696372;28;2226;-64
2024/02/19 00:50:55;;;;;;;9.83;5.37;;;;;;;;;;700085;28;848;-64
2024/02/19 00:51:15;;;;;;;11.20;5.40;;;;;;;;;;697907;28;900;-64
2024/02/19 00:51:35;;;;;;;10.05;5.35;;;;;;;;;;699477;28;2429;-63
2024/02/19 00:51:55;;;;;;;10.27;5.33;;;;;;;;;;701766;28;1053;-64
2024/02/19 00:52:16;;;;;;;10.77;5.30;;;;;;;;;;705009;27;4950;-63
2024/02/19 00:52:38;;;;;;;10.10;5.00;;;;;;;;;;703428;27;1909;-64
2024/02/19 00:52:59;;;;;;;11.07;5.03;;;;;;;;;;704481;27;955;-63
2024/02/19 00:53:19;;;;;;;11.43;5.35;;;;;;;;;;700616;28;1210;-65
2024/02/19 00:53:39;;;;;;;9.93;5.63;;;;;;;;;;698598;28;1160;-65
2024/02/19 00:54:00;;;;;;;9.00;5.10;;;;;;;;;;699671;28;939;-63
2024/02/19 00:54:20;;;;;;;8.35;4.80;;;;;;;;;;700429;28;904;-64
2024/02/19 00:54:42;;;;;;;9.23;4.80;;;;;;;;;;693000;28;1463;-64
2024/02/19 00:55:03;;;;;;;9.98;5.03;;;;;;;;;;694802;28;4237;-64
2024/02/19 00:55:23;;;;;;;10.03;4.93;;;;;;;;;;698114;28;951;-65
2024/02/19 00:55:43;;;;;;;11.00;5.03;;;;;;;;;;696479;28;2156;-65
2024/02/19 00:56:03;;;;;;;9.93;4.95;;;;;;;;;;700648;28;911;-64
2024/02/19 00:56:24;;;;;;;10.80;5.00;;;;;;;;;;696029;28;1309;-64
2024/02/19 00:56:44;;;;;;;9.57;5.00;;;;;;;;;;696609;28;1876;-63
2024/02/19 00:57:04;;;;;;;9.87;5.20;;;;;;;;;;697791;28;1289;-63
2024/02/19 00:57:25;;;;;;;10.10;5.43;;;;;;;;;;697843;28;960;-64
2024/02/19 00:57:45;;;;;;;10.40;5.17;;;;;;;;;;699483;28;924;-63
2024/02/19 00:58:05;;;;;;;9.70;5.23;;;;;;;;;;698262;28;4245;-63
2024/02/19 00:58:25;;;;;;;9.20;5.25;;;;;;;;;;696168;28;1729;-64
2024/02/19 00:58:46;;;;;;;8.68;4.82;;;;;;;;;;697089;28;1034;-63
2024/02/19 00:59:09;;;;;;;9.60;4.83;;;;;;;;;;699675;28;1666;-64
2024/02/19 00:59:29;;;;;;;10.65;5.18;;;;;;;;;;697593;28;5029;-64
2024/02/19 00:59:49;;;;;;;10.60;5.03;;;;;;;;;;698880;28;878;-64
2024/02/19 01:00:10;;;;;;;11.32;5.07;;;;;;;;;;697206;28;956;-63
2024/02/19 01:00:30;;;;;;;11.27;5.40;;;;;;;;;;695381;28;1546;-63
2024/02/19 01:00:55;;;;;;;13.17;5.90;;;;;;;;;;697196;28;925;-63
2024/02/19 01:01:15;;;;;;;11.13;5.38;;;;;;;;;;695284;28;4558;-65
2024/02/19 01:01:35;;;;;;;12.53;5.30;;;;;;;;;;699819;28;1717;-64
2024/02/19 01:01:55;;;;;;;11.63;5.13;;;;;;;;;;702818;28;908;-64
2024/02/19 01:02:16;;;;;;;9.53;5.03;;;;;;;;;;703609;27;1068;-64
2024/02/19 01:02:36;;;;;;;10.83;5.10;;;;;;;;;;702325;28;1796;-64
2024/02/19 01:02:58;;;;;;;12.43;5.38;;;;;;;;;;701348;28;1344;-63
2024/02/19 01:03:18;;;;;;;12.80;5.40;;;;;;;;;;694943;28;889;-64
2024/02/19 01:03:38;;;;;;;11.60;5.53;;;;;;;;;;697184;28;1730;-64
2024/02/19 01:03:58;;;;;;;11.75;5.55;;;;;;;;;;698506;28;1105;-63
2024/02/19 01:04:19;;;;;;;13.30;5.20;;;;;;;;;;697143;28;4183;-63
2024/02/19 01:04:40;;;;;;;12.30;5.30;;;;;;;;;;697159;28;1078;-63
2024/02/19 01:05:00;;;;;;;11.45;5.40;;;;;;;;;;701600;28;828;-63
2024/02/19 01:05:20;;;;;;;11.27;5.45;;;;;;;;;;699455;28;860;-62
2024/02/19 01:05:40;;;;;;;10.33;5.30;;;;;;;;;;700735;28;1683;-63
2024/02/19 01:06:01;;;;;;;9.93;5.17;;;;;;;;;;701817;28;757;-63
2024/02/19 01:06:21;;;;;;;11.98;4.80;;;;;;;;;;701975;28;987;-64
2024/02/19 01:06:41;;;;;;;12.43;4.70;;;;;;;;;;698766;28;2297;-64
2024/02/19 01:07:02;;;;;;;10.80;4.77;;;;;;;;;;699002;28;4272;-64
2024/02/19 01:07:22;;;;;;;9.88;4.95;;;;;;;;;;698264;28;1000;-64
2024/02/19 01:07:42;;;;;;;10.73;5.20;;;;;;;;;;698449;28;2326;-64
2024/02/19 01:08:03;;;;;;;10.25;5.28;;;;;;;;;;693732;28;1169;-63
2024/02/19 01:08:23;;;;;;;9.40;5.00;;;;;;;;;;692095;28;1183;-65
2024/02/19 01:08:43;;;;;;;9.80;5.20;;;;;;;;;;692506;28;2529;-63
2024/02/19 01:09:04;;;;;;;10.07;5.25;;;;;;;;;;692636;28;1050;-65
2024/02/19 01:09:24;;;;;;;9.87;5.00;;;;;;;;;;692878;28;916;-63
2024/02/19 01:09:44;;;;;;;9.33;4.97;;;;;;;;;;692047;28;1105;-62
2024/02/19 01:10:05;;;;;;;11.73;4.97;;;;;;;;;;695954;28;4243;-65
2024/02/19 01:10:25;;;;;;;12.87;5.37;;;;;;;;;;696840;28;878;-64
2024/02/19 01:10:46;;;;;;;12.07;5.50;;;;;;;;;;694416;28;1666;-64
2024/02/19 01:11:06;;;;;;;9.87;5.60;;;;;;;;;;696700;28;785;-63
2024/02/19 01:11:26;;;;;;;11.05;5.60;;;;;;;;;;692935;28;951;-64
2024/02/19 01:11:46;;;;;;;10.17;5.17;;;;;;;;;;697352;28;802;-63
2024/02/19 01:12:08;;;;;;;10.77;5.03;;;;;;;;;;696859;28;876;-64
2024/02/19 01:12:28;;;;;;;11.80;5.90;;;;;;;;;;694356;28;1948;-64
2024/02/19 01:12:49;;;;;;;12.73;6.10;;;;;;;;;;698674;28;814;-63
2024/02/19 01:13:10;;;;;;;12.02;5.53;;;;;;;;;;698486;28;4455;-64
2024/02/19 01:13:30;;;;;;;11.80;5.53;;;;;;;;;;701186;28;1251;-65
2024/02/19 01:13:51;;;;;;;11.30;5.53;;;;;;;;;;700335;28;951;-63
2024/02/19 01:14:11;;;;;;;10.93;5.20;;;;;;;;;;701983;28;1025;-65
2024/02/19 01:14:32;;;;;;;11.40;5.05;;;;;;;;;;698290;28;884;-64
2024/02/19 01:14:52;;;;;;;11.53;5.07;;;;;;;;;;701361;28;939;-64
2024/02/19 01:15:12;;;;;;;10.40;4.90;;;;;;;;;;700831;28;864;-63
2024/02/19 01:15:33;;;;;;;9.93;5.00;;;;;;;;;;697337;28;1013;-64
2024/02/19 01:15:53;;;;;;;11.63;5.67;;;;;;;;;;693981;28;1177;-64
2024/02/19 01:16:13;;;;;;;11.80;5.40;;;;;;;;;;697494;28;4246;-64
2024/02/19 01:16:33;;;;;;;9.87;5.07;;;;;;;;;;698248;28;929;-63
2024/02/19 01:16:54;;;;;;;12.33;5.23;;;;;;;;;;698967;28;912;-63
2024/02/19 01:17:14;;;;;;;12.77;5.47;;;;;;;;;;697074;28;928;-64
2024/02/19 01:17:34;;;;;;;12.15;5.15;;;;;;;;;;697957;28;1242;-64
2024/02/19 01:17:54;;;;;;;11.70;5.10;;;;;;;;;;692581;28;1274;-62
2024/02/19 01:18:16;;;;;;;11.93;5.20;;;;;;;;;;693979;28;912;-63
2024/02/19 01:18:37;;;;;;;11.60;5.40;;;;;;;;;;695124;28;1123;-63
2024/02/19 01:18:57;;;;;;;10.98;5.18;;;;;;;;;;695191;28;901;-64
2024/02/19 01:19:17;;;;;;;12.77;5.30;;;;;;;;;;694943;28;4230;-66
2024/02/19 01:19:40;;;;;;;10.07;4.87;;;;;;;;;;693752;28;1030;-64
2024/02/19 01:20:01;;;;;;;11.93;4.90;;;;;;;;;;698226;28;812;-63
2024/02/19 01:20:22;;;;;;;13.55;5.53;;;;;;;;;;697152;28;841;-63
2024/02/19 01:20:43;;;;;;;14.47;5.47;;;;;;;;;;697513;28;957;-63
2024/02/19 01:21:03;;;;;;;13.20;5.40;;;;;;;;;;699388;28;961;-63
2024/02/19 01:21:24;;;;;;;12.35;5.07;;;;;;;;;;702092;27;947;-62
2024/02/19 01:21:44;;;;;;;10.83;5.20;;;;;;;;;;700823;28;1090;-64
2024/02/19 01:22:04;;;;;;;11.00;5.40;;;;;;;;;;699717;28;4448;-62
2024/02/19 01:22:27;;;;;;;13.55;5.35;;;;;;;;;;700700;28;920;-63
2024/02/19 01:22:47;;;;;;;13.07;5.22;;;;;;;;;;701025;28;1316;-64
2024/02/19 01:23:07;;;;;;;12.10;5.13;;;;;;;;;;701639;28;1302;-63
2024/02/19 01:23:28;;;;;;;10.70;4.60;;;;;;;;;;700143;28;920;-63
2024/02/19 01:23:48;;;;;;;12.07;5.07;;;;;;;;;;700534;28;1239;-64
2024/02/19 01:24:08;;;;;;;12.17;5.03;;;;;;;;;;706124;27;923;-62
2024/02/19 01:24:29;;;;;;;12.90;5.00;;;;;;;;;;700775;28;1356;-63
2024/02/19 01:24:49;;;;;;;13.73;5.50;;;;;;;;;;700846;28;908;-64
2024/02/19 01:25:10;;;;;;;12.20;5.63;;;;;;;;;;699157;28;4248;-63
2024/02/19 01:25:30;;;;;;;13.25;5.32;;;;;;;;;;700153;28;1151;-63
2024/02/19 01:25:52;;;;;;;12.87;5.53;;;;;;;;;;702387;28;978;-63
2024/02/19 01:26:17;;;;;;;13.07;5.43;;;;;;;;;;702385;28;1212;-62
2024/02/19 01:26:37;;;;;;;11.57;5.60;;;;;;;;;;701579;28;1722;-62
2024/02/19 01:26:58;;;;;;;14.60;6.13;;;;;;;;;;703101;28;885;-63
2024/02/19 01:27:18;;;;;;;14.30;5.67;;;;;;;;;;700444;28;6433;-63
2024/02/19 01:27:40;;;;;;;16.00;5.45;;;;;;;;;;701759;28;1083;-63
2024/02/19 01:28:01;;;;;;;14.43;5.32;;;;;;;;;;700902;28;4190;-63
2024/02/19 01:28:21;;;;;;;14.30;5.70;;;;;;;;;;702844;28;1062;-63
2024/02/19 01:28:41;;;;;;;14.93;5.60;;;;;;;;;;699609;28;1178;-63
2024/02/19 01:29:02;;;;;;;12.43;5.07;;;;;;;;;;702913;28;915;-63
2024/02/19 01:29:24;;;;;;;14.73;5.70;;;;;;;;;;701349;28;963;-63
2024/02/19 01:29:45;;;;;;;14.95;5.53;;;;;;;;;;699636;28;1009;-62
2024/02/19 01:30:06;;;;;;;12.77;5.18;;;;;;;;;;699435;28;1380;-63
2024/02/19 01:30:26;;;;;;;11.40;5.10;;;;;;;;;;697226;28;865;-61
2024/02/19 01:30:47;;;;;;;10.30;4.80;;;;;;;;;;700895;28;1278;-62
2024/02/19 01:31:07;;;;;;;14.33;5.10;;;;;;;;;;701038;28;4398;-62
2024/02/19 01:31:28;;;;;;;12.80;4.43;;;;;;;;;;699908;28;1026;-62
2024/02/19 01:31:48;;;;;;;12.97;4.80;;;;;;;;;;699593;28;1117;-63
2024/02/19 01:32:08;;;;;;;13.07;4.90;;;;;;;;;;701577;28;871;-63
2024/02/19 01:32:28;;;;;;;13.13;5.00;;;;;;;;;;700596;28;2124;-63
2024/02/19 01:32:49;;;;;;;11.02;4.45;;;;;;;;;;702075;28;895;-65
2024/02/19 01:33:09;;;;;;;11.80;4.50;;;;;;;;;;701313;28;774;-63
2024/02/19 01:33:30;;;;;;;12.82;4.97;;;;;;;;;;701985;28;1499;-64
2024/02/19 01:33:50;;;;;;;13.50;4.77;;;;;;;;;;703283;27;839;-63
2024/02/19 01:34:11;;;;;;;13.13;4.32;;;;;;;;;;701412;28;4969;-66
2024/02/19 01:34:31;;;;;;;12.10;4.20;;;;;;;;;;700516;28;885;-64
2024/02/19 01:34:51;;;;;;;15.68;4.88;;;;;;;;;;701413;28;798;-63
2024/02/19 01:35:12;;;;;;;13.37;4.97;;;;;;;;;;702261;28;1483;-63
2024/02/19 01:35:32;;;;;;;12.57;4.77;;;;;;;;;;696676;28;1009;-63
2024/02/19 01:35:52;;;;;;;10.85;4.53;;;;;;;;;;698447;28;6756;-63
2024/02/19 01:36:13;;;;;;;13.73;4.90;;;;;;;;;;701064;28;5352;-64
2024/02/19 01:36:33;;;;;;;13.90;4.43;;;;;;;;;;698654;28;1947;-64
2024/02/19 01:36:53;;;;;;;14.17;4.33;;;;;;;;;;701534;28;1282;-63
2024/02/19 01:37:14;;;;;;;13.70;4.47;;;;;;;;;;701075;28;4237;-65
2024/02/19 01:37:35;;;;;;;11.23;4.10;;;;;;;;;;702777;27;2430;-64
2024/02/19 01:37:55;;;;;;;10.07;4.05;;;;;;;;;;703574;28;935;-64
2024/02/19 01:38:16;;;;;;;14.53;4.50;;;;;;;;;;703520;28;1273;-64
2024/02/19 01:38:36;;;;;;;11.07;4.22;;;;;;;;;;698804;28;1699;-64
2024/02/19 01:38:56;;;;;;;12.03;4.30;;;;;;;;;;702122;28;1148;-64
2024/02/19 01:39:17;;;;;;;10.00;4.03;;;;;;;;;;700542;28;963;-64
2024/02/19 01:39:37;;;;;;;10.87;4.13;;;;;;;;;;699127;28;1949;-64
2024/02/19 01:39:57;;;;;;;12.13;4.03;;;;;;;;;;701623;28;771;-64
2024/02/19 01:40:18;;;;;;;10.63;3.95;;;;;;;;;;703446;27;4400;-63
2024/02/19 01:40:38;;;;;;;12.67;4.27;;;;;;;;;;702103;27;1683;-63
2024/02/19 01:40:59;;;;;;;10.70;3.70;;;;;;;;;;701408;28;968;-63
2024/02/19 01:41:19;;;;;;;10.23;3.40;;;;;;;;;;702567;28;867;-63
2024/02/19 01:41:39;;;;;;;11.03;3.70;;;;;;;;;;699576;28;979;-63
2024/02/19 01:41:59;;;;;;;10.68;3.78;;;;;;;;;;700829;28;1694;-64
2024/02/19 01:42:20;;;;;;;10.77;3.83;;;;;;;;;;701730;28;1026;-64
2024/02/19 01:42:40;;;;;;;10.97;3.43;;;;;;;;;;699461;27;1631;-64
2024/02/19 01:43:01;;;;;;;12.02;3.95;;;;;;;;;;700659;28;4273;-63
2024/02/19 01:43:22;;;;;;;12.88;4.22;;;;;;;;;;700928;28;875;-63
2024/02/19 01:43:43;;;;;;;10.93;3.85;;;;;;;;;;700402;28;2597;-63
2024/02/19 01:44:04;;;;;;;11.32;3.42;;;;;;;;;;701641;28;913;-63
2024/02/19 01:44:24;;;;;;;11.60;3.60;;;;;;;;;;702386;28;765;-65
2024/02/19 01:44:45;;;;;;;12.27;3.50;;;;;;;;;;700830;28;1706;-64
2024/02/19 01:45:07;;;;;;;11.50;3.60;;;;;;;;;;703822;28;955;-64
2024/02/19 01:45:27;;;;;;;14.15;3.53;;;;;;;;;;703482;27;832;-64
2024/02/19 01:45:47;;;;;;;12.97;3.40;;;;;;;;;;703187;27;1155;-61
2024/02/19 01:46:08;;;;;;;11.70;3.35;;;;;;;;;;704598;27;4231;-63
2024/02/19 01:46:32;;;;;;;12.07;3.73;;;;;;;;;;704279;27;765;-63
2024/02/19 01:46:52;;;;;;;10.05;3.70;;;;;;;;;;701157;28;1168;-63
2024/02/19 01:47:13;;;;;;;11.20;4.07;;;;;;;;;;699760;28;813;-65
2024/02/19 01:47:34;;;;;;;11.47;3.37;;;;;;;;;;698864;28;1787;-63
2024/02/19 01:47:55;;;;;;;12.77;3.00;;;;;;;;;;695350;28;821;-63
2024/02/19 01:48:16;;;;;;;10.90;3.20;;;;;;;;;;695360;28;919;-62
2024/02/19 01:48:36;;;;;;;11.90;3.30;;;;;;;;;;695130;28;1522;-63
2024/02/19 01:48:57;;;;;;;10.63;3.35;;;;;;;;;;698737;28;4563;-63
2024/02/19 01:49:18;;;;;;;10.98;3.22;;;;;;;;;;698839;28;4445;-63
2024/02/19 01:49:39;;;;;;;11.68;2.90;;;;;;;;;;698610;28;1840;-65
2024/02/19 01:49:59;;;;;;;10.87;2.70;;;;;;;;;;698456;28;1270;-65
2024/02/19 01:50:19;;;;;;;10.10;3.40;;;;;;;;;;699833;28;1069;-64
2024/02/19 01:50:40;;;;;;;11.27;3.57;;;;;;;;;;700057;28;2372;-63
2024/02/19 01:51:00;;;;;;;11.77;3.55;;;;;;;;;;701563;28;781;-64
2024/02/19 01:51:22;;;;;;;11.70;3.70;;;;;;;;;;699047;28;928;-65
2024/02/19 01:51:42;;;;;;;12.25;3.33;;;;;;;;;;697188;28;1898;-65
2024/02/19 01:52:03;;;;;;;12.23;3.00;;;;;;;;;;701138;28;4818;-65
2024/02/19 01:52:24;;;;;;;12.88;3.22;;;;;;;;;;701960;28;940;-64
2024/02/19 01:52:44;;;;;;;14.43;3.50;;;;;;;;;;698322;28;2226;-64
2024/02/19 01:53:09;;;;;;;11.38;3.60;;;;;;;;;;701542;28;714;-64
2024/02/19 01:53:29;;;;;;;10.30;2.95;;;;;;;;;;700537;28;1977;-64
2024/02/19 01:53:51;;;;;;;11.20;3.42;;;;;;;;;;703530;28;1306;-64
2024/02/19 01:54:11;;;;;;;12.02;3.60;;;;;;;;;;705347;27;841;-64
2024/02/19 01:54:32;;;;;;;9.40;2.97;;;;;;;;;;703245;27;2416;-72
2024/02/19 01:54:52;;;;;;;10.63;3.20;;;;;;;;;;705339;27;888;-65
2024/02/19 01:55:13;;;;;;;12.52;3.25;;;;;;;;;;699724;28;4395;-64
2024/02/19 01:55:34;;;;;;;12.10;3.40;;;;;;;;;;698772;28;4876;-64
2024/02/19 01:55:55;;;;;;;11.15;3.20;;;;;;;;;;697382;28;1392;-64
2024/02/19 01:56:15;;;;;;;12.27;3.50;;;;;;;;;;698443;28;913;-63
2024/02/19 01:56:37;;;;;;;13.23;2.90;;;;;;;;;;693248;28;1958;-65
2024/02/19 01:56:58;;;;;;;13.90;2.67;;;;;;;;;;695803;28;1254;-64
2024/02/19 01:57:18;;;;;;;10.18;2.40;;;;;;;;;;696157;28;1386;-64
2024/02/19 01:57:39;;;;;;;9.13;2.60;;;;;;;;;;695245;28;1846;-63
2024/02/19 01:58:00;;;;;;;9.40;2.90;;;;;;;;;;700081;28;4519;-63
2024/02/19 01:58:20;;;;;;;8.65;2.60;;;;;;;;;;699614;28;1625;-64
2024/02/19 01:58:44;;;;;;;9.40;2.90;;;;;;;;;;697960;28;1685;-62
2024/02/19 01:59:06;;;;;;;10.20;2.70;;;;;;;;;;701093;28;963;-64
2024/02/19 01:59:27;;;;;;;8.80;2.28;;;;;;;;;;700983;28;986;-64
2024/02/19 01:59:47;;;;;;;8.88;2.45;;;;;;;;;;698168;28;1778;-63
2024/02/19 02:00:09;;;;;;;8.73;2.13;;;;;;;;;;704263;28;896;-63
2024/02/19 02:00:32;;;;;;;9.55;2.38;;;;;;;;;;702700;27;1507;-64
2024/02/19 02:00:53;;;;;;;10.38;2.35;;;;;;;;;;705323;27;911;-64
2024/02/19 02:01:14;;;;;;;10.63;2.43;;;;;;;;;;704695;27;4226;-64
2024/02/19 02:01:36;;;;;;;10.57;2.33;;;;;;;;;;702488;28;2358;-63
2024/02/19 02:01:56;;;;;;;9.57;2.17;;;;;;;;;;703495;28;1194;-64
2024/02/19 02:02:17;;;;;;;10.17;2.40;;;;;;;;;;702292;28;1190;-64
2024/02/19 02:02:38;;;;;;;9.68;2.22;;;;;;;;;;702305;28;1909;-63
2024/02/19 02:02:59;;;;;;;9.03;2.00;;;;;;;;;;704211;28;912;-64
2024/02/19 02:03:21;;;;;;;9.27;2.08;;;;;;;;;;703175;28;908;-64
2024/02/19 02:03:42;;;;;;;8.48;2.20;;;;;;;;;;699861;28;2292;-64
2024/02/19 02:04:05;;;;;;;7.88;1.95;;;;;;;;;;699495;28;4246;-64
2024/02/19 02:04:26;;;;;;;7.80;2.15;;;;;;;;;;699540;28;844;-63
2024/02/19 02:04:47;;;;;;;8.60;2.30;;;;;;;;;;699163;28;967;-62
2024/02/19 02:05:07;;;;;;;9.00;2.35;;;;;;;;;;700809;28;1120;-64
2024/02/19 02:05:28;;;;;;;9.82;2.00;;;;;;;;;;701645;28;908;-64
2024/02/19 02:05:48;;;;;;;9.23;2.20;;;;;;;;;;704811;27;1679;-64
2024/02/19 02:06:08;;;;;;;8.50;2.00;;;;;;;;;;705123;27;757;-62